sensor_id;sensor_type;location;lat;lon;timestamp;temperature;humidity
16273;DHT22;8244;50.044;9.006;2023-04-03T00:02:37;4.40;99.90
16273;DHT22;8244;50.044;9.006;2023-04-03T00:07:40;4.30;99.90
16273;DHT22;8244;50.044;9.006;2023-04-03T00:12:43;4.30;99.90
16273;DHT22;8244;50.044;9.006;2023-04-03T00:17:45;4.30;99.90
16273;DHT22;8244;50.044;9.006;2023-04-03T00:22:47;4.30;99.90
16273;DHT22;8244;50.044;9.006;2023-04-03T00:27:50;4.20;99.90
16273;DHT22;8244;50.044;9.006;2023-04-03T00:32:52;4.20;99.90
16273;DHT22;8244;50.044;9.006;2023-04-03T00:37:54;4.20;99.90
16273;DHT22;8244;50.044;9.006;2023-04-03T00:42:59;4.20;99.90
16273;DHT22;8244;50.044;9.006;2023-04-03T00:48:03;4.20;99.90
16273;DHT22;8244;50.044;9.006;2023-04-03T00:53:07;4.20;99.90
16273;DHT22;8244;50.044;9.006;2023-04-03T00:58:15;4.20;99.90
16273;DHT22;8244;50.044;9.006;2023-04-03T01:03:19;4.10;99.90
16273;DHT22;8244;50.044;9.006;2023-04-03T01:08:20;4.10;99.90
16273;DHT22;8244;50.044;9.006;2023-04-03T01:13:27;4.20;99.90
16273;DHT22;8244;50.044;9.006;2023-04-03T01:18:29;4.20;99.90
16273;DHT22;8244;50.044;9.006;2023-04-03T01:23:51;4.20;99.90
16273;DHT22;8244;50.044;9.006;2023-04-03T01:28:56;4.20;99.90
16273;DHT22;8244;50.044;9.006;2023-04-03T01:34:02;4.20;99.90
16273;DHT22;8244;50.044;9.006;2023-04-03T01:39:04;4.10;99.90
16273;DHT22;8244;50.044;9.006;2023-04-03T01:44:06;4.10;99.90
16273;DHT22;8244;50.044;9.006;2023-04-03T01:49:09;4.10;99.90
16273;DHT22;8244;50.044;9.006;2023-04-03T01:54:11;4.10;99.90
16273;DHT22;8244;50.044;9.006;2023-04-03T01:59:13;4.00;99.90
16273;DHT22;8244;50.044;9.006;2023-04-03T02:04:18;4.00;99.90
16273;DHT22;8244;50.044;9.006;2023-04-03T02:09:20;4.00;99.90
16273;DHT22;8244;50.044;9.006;2023-04-03T02:14:22;4.00;99.90
16273;DHT22;8244;50.044;9.006;2023-04-03T02:19:25;4.00;99.90
16273;DHT22;8244;50.044;9.006;2023-04-03T02:24:27;4.00;99.90
16273;DHT22;8244;50.044;9.006;2023-04-03T02:29:29;4.00;99.90
16273;DHT22;8244;50.044;9.006;2023-04-03T02:34:32;4.00;99.90
16273;DHT22;8244;50.044;9.006;2023-04-03T02:39:33;4.00;99.90
16273;DHT22;8244;50.044;9.006;2023-04-03T02:44:35;4.00;99.90
16273;DHT22;8244;50.044;9.006;2023-04-03T02:49:38;4.00;99.90
16273;DHT22;8244;50.044;9.006;2023-04-03T02:54:40;4.00;99.90
16273;DHT22;8244;50.044;9.006;2023-04-03T02:59:42;4.00;99.90
16273;DHT22;8244;50.044;9.006;2023-04-03T03:04:46;3.90;99.90
16273;DHT22;8244;50.044;9.006;2023-04-03T03:09:47;3.90;99.90
16273;DHT22;8244;50.044;9.006;2023-04-03T03:14:49;3.90;99.90
16273;DHT22;8244;50.044;9.006;2023-04-03T03:19:52;3.90;99.90
16273;DHT22;8244;50.044;9.006;2023-04-03T03:24:54;3.80;99.90
16273;DHT22;8244;50.044;9.006;2023-04-03T03:29:55;3.80;99.90
16273;DHT22;8244;50.044;9.006;2023-04-03T03:34:59;3.80;99.90
16273;DHT22;8244;50.044;9.006;2023-04-03T03:40:00;3.80;99.90
16273;DHT22;8244;50.044;9.006;2023-04-03T03:45:02;3.80;99.90
16273;DHT22;8244;50.044;9.006;2023-04-03T03:50:07;3.70;99.90
16273;DHT22;8244;50.044;9.006;2023-04-03T03:55:09;3.60;99.90
16273;DHT22;8244;50.044;9.006;2023-04-03T04:00:11;3.60;99.90
16273;DHT22;8244;50.044;9.006;2023-04-03T04:05:14;3.50;99.90
16273;DHT22;8244;50.044;9.006;2023-04-03T04:10:16;3.50;99.90
16273;DHT22;8244;50.044;9.006;2023-04-03T04:15:18;3.40;99.90
16273;DHT22;8244;50.044;9.006;2023-04-03T04:20:23;3.40;99.90
16273;DHT22;8244;50.044;9.006;2023-04-03T04:25:25;3.40;99.90
16273;DHT22;8244;50.044;9.006;2023-04-03T04:30:26;3.40;99.90
16273;DHT22;8244;50.044;9.006;2023-04-03T04:35:30;3.30;99.90
16273;DHT22;8244;50.044;9.006;2023-04-03T04:40:31;3.30;99.90
16273;DHT22;8244;50.044;9.006;2023-04-03T04:45:33;3.20;99.90
16273;DHT22;8244;50.044;9.006;2023-04-03T04:50:36;3.10;99.90
16273;DHT22;8244;50.044;9.006;2023-04-03T04:55:38;3.00;99.90
16273;DHT22;8244;50.044;9.006;2023-04-03T05:00:39;3.00;99.90
16273;DHT22;8244;50.044;9.006;2023-04-03T05:05:45;2.90;99.90
16273;DHT22;8244;50.044;9.006;2023-04-03T05:10:47;2.90;99.90
16273;DHT22;8244;50.044;9.006;2023-04-03T05:15:49;2.70;99.90
16273;DHT22;8244;50.044;9.006;2023-04-03T05:20:52;2.70;99.90
16273;DHT22;8244;50.044;9.006;2023-04-03T05:25:53;2.60;99.90
16273;DHT22;8244;50.044;9.006;2023-04-03T05:30:56;2.60;99.90
16273;DHT22;8244;50.044;9.006;2023-04-03T05:36:04;2.70;99.90
16273;DHT22;8244;50.044;9.006;2023-04-03T05:41:06;2.70;99.90
16273;DHT22;8244;50.044;9.006;2023-04-03T05:46:10;2.70;99.90
16273;DHT22;8244;50.044;9.006;2023-04-03T05:51:17;3.00;99.90
16273;DHT22;8244;50.044;9.006;2023-04-03T05:56:18;3.40;99.90
16273;DHT22;8244;50.044;9.006;2023-04-03T06:01:20;4.20;99.90
16273;DHT22;8244;50.044;9.006;2023-04-03T06:06:23;4.60;99.90
16273;DHT22;8244;50.044;9.006;2023-04-03T06:11:25;4.80;99.90
16273;DHT22;8244;50.044;9.006;2023-04-03T06:16:27;4.80;99.90
16273;DHT22;8244;50.044;9.006;2023-04-03T06:21:30;5.10;99.90
16273;DHT22;8244;50.044;9.006;2023-04-03T06:26:32;5.40;99.90
16273;DHT22;8244;50.044;9.006;2023-04-03T06:31:34;5.90;99.90
16273;DHT22;8244;50.044;9.006;2023-04-03T06:36:38;5.90;99.90
16273;DHT22;8244;50.044;9.006;2023-04-03T06:41:40;5.80;99.90
16273;DHT22;8244;50.044;9.006;2023-04-03T06:46:42;6.00;99.90
16273;DHT22;8244;50.044;9.006;2023-04-03T06:51:45;6.10;99.90
16273;DHT22;8244;50.044;9.006;2023-04-03T06:56:46;6.20;99.90
16273;DHT22;8244;50.044;9.006;2023-04-03T07:01:48;6.10;99.90
16273;DHT22;8244;50.044;9.006;2023-04-03T07:06:51;5.90;99.90
16273;DHT22;8244;50.044;9.006;2023-04-03T07:11:53;5.90;99.90
16273;DHT22;8244;50.044;9.006;2023-04-03T07:16:54;5.80;99.90
16273;DHT22;8244;50.044;9.006;2023-04-03T07:21:57;5.70;99.90
16273;DHT22;8244;50.044;9.006;2023-04-03T07:27:00;5.70;99.90
16273;DHT22;8244;50.044;9.006;2023-04-03T07:32:03;6.00;99.90
16273;DHT22;8244;50.044;9.006;2023-04-03T07:37:06;6.50;99.90
16273;DHT22;8244;50.044;9.006;2023-04-03T07:42:09;6.70;99.90
16273;DHT22;8244;50.044;9.006;2023-04-03T07:47:11;7.10;99.90
16273;DHT22;8244;50.044;9.006;2023-04-03T07:52:15;7.60;99.90
16273;DHT22;8244;50.044;9.006;2023-04-03T07:57:17;8.20;99.90
16273;DHT22;8244;50.044;9.006;2023-04-03T08:02:19;8.70;99.90
16273;DHT22;8244;50.044;9.006;2023-04-03T08:07:22;9.60;99.90
16273;DHT22;8244;50.044;9.006;2023-04-03T08:12:23;10.40;99.90
16273;DHT22;8244;50.044;9.006;2023-04-03T08:17:25;11.10;99.30
16273;DHT22;8244;50.044;9.006;2023-04-03T08:22:29;11.30;97.40
16273;DHT22;8244;50.044;9.006;2023-04-03T08:27:31;11.90;97.60
16273;DHT22;8244;50.044;9.006;2023-04-03T08:32:33;12.30;92.40
16273;DHT22;8244;50.044;9.006;2023-04-03T08:37:37;11.50;93.20
16273;DHT22;8244;50.044;9.006;2023-04-03T08:42:47;11.50;93.30
16273;DHT22;8244;50.044;9.006;2023-04-03T08:47:56;11.70;92.60
16273;DHT22;8244;50.044;9.006;2023-04-03T08:53:03;12.10;92.40
16273;DHT22;8244;50.044;9.006;2023-04-03T08:58:12;12.50;89.70
16273;DHT22;8244;50.044;9.006;2023-04-03T09:03:15;11.90;91.30
16273;DHT22;8244;50.044;9.006;2023-04-03T09:08:30;11.70;91.20
16273;DHT22;8244;50.044;9.006;2023-04-03T09:13:38;11.60;89.40
16273;DHT22;8244;50.044;9.006;2023-04-03T09:18:45;11.10;90.50
16273;DHT22;8244;50.044;9.006;2023-04-03T09:23:52;11.10;90.80
16273;DHT22;8244;50.044;9.006;2023-04-03T09:28:58;10.90;91.50
16273;DHT22;8244;50.044;9.006;2023-04-03T09:34:03;10.20;91.50
16273;DHT22;8244;50.044;9.006;2023-04-03T09:39:11;9.90;91.70
16273;DHT22;8244;50.044;9.006;2023-04-03T09:44:21;9.50;91.50
16273;DHT22;8244;50.044;9.006;2023-04-03T10:04:25;10.40;91.00
16273;DHT22;8244;50.044;9.006;2023-04-03T10:09:28;9.70;93.00
16273;DHT22;8244;50.044;9.006;2023-04-03T10:19:41;9.90;93.50
16273;DHT22;8244;50.044;9.006;2023-04-03T10:36:34;11.30;92.30
16273;DHT22;8244;50.044;9.006;2023-04-03T10:41:47;12.20;90.10
16273;DHT22;8244;50.044;9.006;2023-04-03T10:46:55;12.60;88.70
16273;DHT22;8244;50.044;9.006;2023-04-03T10:52:06;12.10;86.10
16273;DHT22;8244;50.044;9.006;2023-04-03T10:57:11;12.80;86.00
16273;DHT22;8244;50.044;9.006;2023-04-03T11:02:17;13.30;85.10
16273;DHT22;8244;50.044;9.006;2023-04-03T11:07:27;13.10;80.10
16273;DHT22;8244;50.044;9.006;2023-04-03T11:12:38;12.70;78.80
16273;DHT22;8244;50.044;9.006;2023-04-03T11:17:46;12.00;75.70
16273;DHT22;8244;50.044;9.006;2023-04-03T11:22:57;11.90;80.50
16273;DHT22;8244;50.044;9.006;2023-04-03T11:28:01;12.20;78.60
16273;DHT22;8244;50.044;9.006;2023-04-03T11:33:28;12.30;76.10
16273;DHT22;8244;50.044;9.006;2023-04-03T11:38:36;11.60;72.70
16273;DHT22;8244;50.044;9.006;2023-04-03T11:43:43;11.50;73.10
16273;DHT22;8244;50.044;9.006;2023-04-03T11:48:56;11.70;80.40
16273;DHT22;8244;50.044;9.006;2023-04-03T11:59:58;12.10;74.50
16273;DHT22;8244;50.044;9.006;2023-04-03T12:05:24;12.50;75.20
16273;DHT22;8244;50.044;9.006;2023-04-03T12:10:28;13.10;75.70
16273;DHT22;8244;50.044;9.006;2023-04-03T12:15:47;12.80;72.00
16273;DHT22;8244;50.044;9.006;2023-04-03T12:20:56;13.30;72.70
16273;DHT22;8244;50.044;9.006;2023-04-03T12:26:20;13.20;70.20
16273;DHT22;8244;50.044;9.006;2023-04-03T12:31:36;13.40;71.00
16273;DHT22;8244;50.044;9.006;2023-04-03T12:36:48;12.60;67.30
16273;DHT22;8244;50.044;9.006;2023-04-03T12:41:58;13.00;71.70
16273;DHT22;8244;50.044;9.006;2023-04-03T12:47:16;13.20;75.70
16273;DHT22;8244;50.044;9.006;2023-04-03T12:52:30;13.50;71.30
16273;DHT22;8244;50.044;9.006;2023-04-03T12:57:34;13.50;74.70
16273;DHT22;8244;50.044;9.006;2023-04-03T13:02:36;13.50;71.40
16273;DHT22;8244;50.044;9.006;2023-04-03T13:07:38;13.70;73.70
16273;DHT22;8244;50.044;9.006;2023-04-03T13:12:48;13.30;70.20
16273;DHT22;8244;50.044;9.006;2023-04-03T13:17:51;13.20;72.40
16273;DHT22;8244;50.044;9.006;2023-04-03T13:23:00;12.80;71.20
16273;DHT22;8244;50.044;9.006;2023-04-03T13:28:07;13.20;72.50
16273;DHT22;8244;50.044;9.006;2023-04-03T13:33:21;13.90;74.20
16273;DHT22;8244;50.044;9.006;2023-04-03T13:38:25;14.40;73.00
16273;DHT22;8244;50.044;9.006;2023-04-03T13:43:30;14.60;71.70
16273;DHT22;8244;50.044;9.006;2023-04-03T13:48:42;14.30;70.50
16273;DHT22;8244;50.044;9.006;2023-04-03T13:53:45;14.30;72.50
16273;DHT22;8244;50.044;9.006;2023-04-03T13:59:05;14.30;69.50
16273;DHT22;8244;50.044;9.006;2023-04-03T14:04:14;13.80;69.00
16273;DHT22;8244;50.044;9.006;2023-04-03T14:09:17;13.40;71.20
16273;DHT22;8244;50.044;9.006;2023-04-03T14:14:22;13.70;70.70
16273;DHT22;8244;50.044;9.006;2023-04-03T14:19:27;13.40;72.70
16273;DHT22;8244;50.044;9.006;2023-04-03T14:24:29;13.20;72.00
16273;DHT22;8244;50.044;9.006;2023-04-03T14:29:31;13.50;71.50
16273;DHT22;8244;50.044;9.006;2023-04-03T14:34:33;13.40;71.90
16273;DHT22;8244;50.044;9.006;2023-04-03T14:39:35;13.00;74.50
16273;DHT22;8244;50.044;9.006;2023-04-03T14:44:38;13.20;73.90
16273;DHT22;8244;50.044;9.006;2023-04-03T14:49:41;13.20;75.50
16273;DHT22;8244;50.044;9.006;2023-04-03T14:54:43;13.40;72.20
16273;DHT22;8244;50.044;9.006;2023-04-03T14:59:45;13.30;70.40
16273;DHT22;8244;50.044;9.006;2023-04-03T15:04:48;12.80;70.40
16273;DHT22;8244;50.044;9.006;2023-04-03T15:09:50;12.60;72.50
16273;DHT22;8244;50.044;9.006;2023-04-03T15:14:53;12.50;73.30
16273;DHT22;8244;50.044;9.006;2023-04-03T15:19:55;12.50;73.00
16273;DHT22;8244;50.044;9.006;2023-04-03T15:24:57;12.50;72.80
16273;DHT22;8244;50.044;9.006;2023-04-03T15:30:00;12.30;73.20
16273;DHT22;8244;50.044;9.006;2023-04-03T15:35:02;11.90;72.80
16273;DHT22;8244;50.044;9.006;2023-04-03T15:40:04;11.90;73.30
16273;DHT22;8244;50.044;9.006;2023-04-03T15:45:08;11.60;72.90
16273;DHT22;8244;50.044;9.006;2023-04-03T15:50:10;11.50;71.70
16273;DHT22;8244;50.044;9.006;2023-04-03T15:55:12;11.20;72.80
16273;DHT22;8244;50.044;9.006;2023-04-03T16:00:16;11.00;73.40
16273;DHT22;8244;50.044;9.006;2023-04-03T16:05:19;11.00;73.70
16273;DHT22;8244;50.044;9.006;2023-04-03T16:10:22;10.70;74.30
16273;DHT22;8244;50.044;9.006;2023-04-03T16:15:25;10.40;74.40
16273;DHT22;8244;50.044;9.006;2023-04-03T16:20:27;10.20;75.60
16273;DHT22;8244;50.044;9.006;2023-04-03T16:25:29;10.20;75.40
16273;DHT22;8244;50.044;9.006;2023-04-03T16:30:33;9.80;76.40
16273;DHT22;8244;50.044;9.006;2023-04-03T16:35:34;9.90;76.40
16273;DHT22;8244;50.044;9.006;2023-04-03T16:40:36;9.80;76.80
16273;DHT22;8244;50.044;9.006;2023-04-03T16:45:39;9.80;77.20
16273;DHT22;8244;50.044;9.006;2023-04-03T16:50:41;9.60;77.00
16273;DHT22;8244;50.044;9.006;2023-04-03T16:55:43;9.40;77.80
16273;DHT22;8244;50.044;9.006;2023-04-03T17:00:46;9.30;78.40
16273;DHT22;8244;50.044;9.006;2023-04-03T17:05:48;9.20;77.70
16273;DHT22;8244;50.044;9.006;2023-04-03T17:10:49;9.10;76.60
16273;DHT22;8244;50.044;9.006;2023-04-03T17:15:55;8.80;78.90
16273;DHT22;8244;50.044;9.006;2023-04-03T17:20:57;8.70;77.40
16273;DHT22;8244;50.044;9.006;2023-04-03T17:25:59;8.50;78.00
16273;DHT22;8244;50.044;9.006;2023-04-03T17:31:02;8.30;77.50
16273;DHT22;8244;50.044;9.006;2023-04-03T17:36:04;8.00;79.50
16273;DHT22;8244;50.044;9.006;2023-04-03T17:41:07;7.80;80.20
16273;DHT22;8244;50.044;9.006;2023-04-03T17:46:11;7.60;80.30
16273;DHT22;8244;50.044;9.006;2023-04-03T17:51:15;7.40;80.10
16273;DHT22;8244;50.044;9.006;2023-04-03T17:56:18;7.20;81.30
16273;DHT22;8244;50.044;9.006;2023-04-03T18:01:24;7.10;81.80
16273;DHT22;8244;50.044;9.006;2023-04-03T18:06:27;6.90;82.40
16273;DHT22;8244;50.044;9.006;2023-04-03T18:11:32;6.80;83.30
16273;DHT22;8244;50.044;9.006;2023-04-03T18:16:36;6.70;83.90
16273;DHT22;8244;50.044;9.006;2023-04-03T18:21:38;6.50;84.40
16273;DHT22;8244;50.044;9.006;2023-04-03T18:26:40;6.40;85.30
16273;DHT22;8244;50.044;9.006;2023-04-03T18:31:48;6.20;85.50
16273;DHT22;8244;50.044;9.006;2023-04-03T18:36:50;6.00;86.20
16273;DHT22;8244;50.044;9.006;2023-04-03T18:41:53;5.80;87.00
16273;DHT22;8244;50.044;9.006;2023-04-03T18:46:57;5.70;87.20
16273;DHT22;8244;50.044;9.006;2023-04-03T18:51:59;5.60;87.50
16273;DHT22;8244;50.044;9.006;2023-04-03T18:57:01;5.50;89.40
16273;DHT22;8244;50.044;9.006;2023-04-03T19:02:04;5.40;89.40
16273;DHT22;8244;50.044;9.006;2023-04-03T19:07:07;5.20;90.00
16273;DHT22;8244;50.044;9.006;2023-04-03T19:12:09;5.10;90.60
16273;DHT22;8244;50.044;9.006;2023-04-03T19:17:12;5.00;90.60
16273;DHT22;8244;50.044;9.006;2023-04-03T19:22:14;4.80;90.80
16273;DHT22;8244;50.044;9.006;2023-04-03T19:27:16;4.70;91.30
16273;DHT22;8244;50.044;9.006;2023-04-03T19:32:19;4.70;91.60
16273;DHT22;8244;50.044;9.006;2023-04-03T19:37:20;4.60;92.50
16273;DHT22;8244;50.044;9.006;2023-04-03T19:42:26;4.50;92.40
16273;DHT22;8244;50.044;9.006;2023-04-03T19:47:30;4.40;92.60
16273;DHT22;8244;50.044;9.006;2023-04-03T19:52:32;4.20;92.40
16273;DHT22;8244;50.044;9.006;2023-04-03T19:57:34;4.00;92.50
16273;DHT22;8244;50.044;9.006;2023-04-03T20:02:37;3.90;92.20
16273;DHT22;8244;50.044;9.006;2023-04-03T20:07:39;3.80;92.40
16273;DHT22;8244;50.044;9.006;2023-04-03T20:12:41;3.70;92.50
16273;DHT22;8244;50.044;9.006;2023-04-03T20:17:44;3.70;92.40
16273;DHT22;8244;50.044;9.006;2023-04-03T20:22:46;3.60;92.70
16273;DHT22;8244;50.044;9.006;2023-04-03T20:27:48;3.50;93.20
16273;DHT22;8244;50.044;9.006;2023-04-03T20:32:51;3.40;92.90
16273;DHT22;8244;50.044;9.006;2023-04-03T20:37:52;3.40;92.70
16273;DHT22;8244;50.044;9.006;2023-04-03T20:42:54;3.30;93.00
16273;DHT22;8244;50.044;9.006;2023-04-03T20:47:57;3.30;93.00
16273;DHT22;8244;50.044;9.006;2023-04-03T20:53:00;3.20;93.10
16273;DHT22;8244;50.044;9.006;2023-04-03T20:58:02;3.10;93.20
16273;DHT22;8244;50.044;9.006;2023-04-03T21:03:06;3.10;93.30
16273;DHT22;8244;50.044;9.006;2023-04-03T21:19:30;2.90;93.40
16273;DHT22;8244;50.044;9.006;2023-04-03T21:24:33;2.80;93.40
16273;DHT22;8244;50.044;9.006;2023-04-03T21:29:36;2.70;93.40
16273;DHT22;8244;50.044;9.006;2023-04-03T21:34:39;2.60;93.80
16273;DHT22;8244;50.044;9.006;2023-04-03T21:39:41;2.60;93.70
16273;DHT22;8244;50.044;9.006;2023-04-03T21:44:44;2.50;93.80
16273;DHT22;8244;50.044;9.006;2023-04-03T21:49:49;2.40;94.40
16273;DHT22;8244;50.044;9.006;2023-04-03T21:54:51;2.40;94.40
16273;DHT22;8244;50.044;9.006;2023-04-03T21:59:53;2.30;94.20
16273;DHT22;8244;50.044;9.006;2023-04-03T22:04:56;2.20;94.50
16273;DHT22;8244;50.044;9.006;2023-04-03T22:09:57;2.20;94.40
16273;DHT22;8244;50.044;9.006;2023-04-03T22:14:59;2.10;94.40
16273;DHT22;8244;50.044;9.006;2023-04-03T22:20:04;2.10;94.70
16273;DHT22;8244;50.044;9.006;2023-04-03T22:25:07;2.00;94.90
16273;DHT22;8244;50.044;9.006;2023-04-03T22:30:10;1.90;95.00
16273;DHT22;8244;50.044;9.006;2023-04-03T22:35:13;1.80;95.10
16273;DHT22;8244;50.044;9.006;2023-04-03T22:40:15;1.70;95.20
16273;DHT22;8244;50.044;9.006;2023-04-03T22:45:17;1.60;95.40
16273;DHT22;8244;50.044;9.006;2023-04-03T22:50:20;1.50;95.60
16273;DHT22;8244;50.044;9.006;2023-04-03T22:55:22;1.40;96.10
16273;DHT22;8244;50.044;9.006;2023-04-03T23:00:24;1.30;96.30
16273;DHT22;8244;50.044;9.006;2023-04-03T23:05:28;1.20;96.60
16273;DHT22;8244;50.044;9.006;2023-04-03T23:10:30;1.10;96.80
16273;DHT22;8244;50.044;9.006;2023-04-03T23:15:32;1.00;97.00
16273;DHT22;8244;50.044;9.006;2023-04-03T23:20:37;1.00;97.40
16273;DHT22;8244;50.044;9.006;2023-04-03T23:25:39;0.90;97.80
16273;DHT22;8244;50.044;9.006;2023-04-03T23:30:40;0.80;97.90
16273;DHT22;8244;50.044;9.006;2023-04-03T23:35:45;0.70;98.40
16273;DHT22;8244;50.044;9.006;2023-04-03T23:40:47;0.60;98.70
16273;DHT22;8244;50.044;9.006;2023-04-03T23:45:49;0.50;99.30
16273;DHT22;8244;50.044;9.006;2023-04-03T23:50:52;0.50;99.40
16273;DHT22;8244;50.044;9.006;2023-04-03T23:55:54;0.40;99.70
